Portada
METAR-TAF:

METAR-TAF

Aeroports :

Base Aèria de Morón

Morón de la Frontera, Espanya

latitud: 37-09N, longitud: 005-37W, altitud: 87 m

Observació

L'informe es va fer fa 38 minuts, a les 20:00 UTC
Vent 7 kt del Oest/Sud-Oest, variant entre Sud-Oest i Oest
Temperatura 10°C
Humitat 76%
Pressió 1020 hPa
Visibilitat 10 km o més
Núvols disperses a una alçada de 5500 ft

METAR: LEMO 222000Z 25007KT 220V280 9999 SCT055 10/06 Q1020 NOSIG

Hora: 21:38 (20:38 UTC)

Pronòstic

L'informe es va fer fa 3 hores i 38 minuts, a les 17:00 UTC
Pronòstic vàlid del 22 a les 18 UTC al 23 a les 03 UTC
Vent 8 kt del Oest
Visibilitat 10 km o més
Núvols disperses a una alçada de 3000 ft

TAF: LEMO 221700Z 2218/2303 27008KT 9999 SCT030

Observacions i pronòstics meteorològics de més de 4000 aeroports (METAR i TAF).

Les estacions disponibles són els punts grocs i vermells al mapa.

Posi el ratolí al punt desitjat per veure el nom de l'estació.

Feu clic per veure les observacions i els pronòstics meteorològics.

Per canviar el mapa: feu clic els botons verds amb una creu de color negre per apropar; al botó verd amb un guió per allunyar la imatge; o en les fletxes verdes per a mapes adjacents.


METAR-TAF: